sensor_id;sensor_type;location;lat;lon;timestamp;temperature;humidity
30371;DHT22;17164;48.590;11.410;2023-06-14T00:01:18;11.60;99.90
30371;DHT22;17164;48.590;11.410;2023-06-14T00:03:45;11.60;99.90
30371;DHT22;17164;48.590;11.410;2023-06-14T00:06:13;11.60;99.90
30371;DHT22;17164;48.590;11.410;2023-06-14T00:08:38;11.50;99.90
30371;DHT22;17164;48.590;11.410;2023-06-14T00:11:06;11.50;99.90
30371;DHT22;17164;48.590;11.410;2023-06-14T00:13:31;11.50;99.90
30371;DHT22;17164;48.590;11.410;2023-06-14T00:15:57;11.50;99.90
30371;DHT22;17164;48.590;11.410;2023-06-14T00:18:23;11.40;99.90
30371;DHT22;17164;48.590;11.410;2023-06-14T00:20:55;11.40;99.90
30371;DHT22;17164;48.590;11.410;2023-06-14T00:23:21;11.40;99.90
30371;DHT22;17164;48.590;11.410;2023-06-14T00:25:46;11.40;99.90
30371;DHT22;17164;48.590;11.410;2023-06-14T00:28:12;11.30;99.90
30371;DHT22;17164;48.590;11.410;2023-06-14T00:30:38;11.20;99.90
30371;DHT22;17164;48.590;11.410;2023-06-14T00:33:03;11.10;99.90
30371;DHT22;17164;48.590;11.410;2023-06-14T00:35:29;11.00;99.90
30371;DHT22;17164;48.590;11.410;2023-06-14T00:37:55;11.00;99.90
30371;DHT22;17164;48.590;11.410;2023-06-14T00:40:21;11.00;99.90
30371;DHT22;17164;48.590;11.410;2023-06-14T00:42:47;10.90;99.90
30371;DHT22;17164;48.590;11.410;2023-06-14T00:45:13;10.90;99.90
30371;DHT22;17164;48.590;11.410;2023-06-14T00:47:38;10.80;99.90
30371;DHT22;17164;48.590;11.410;2023-06-14T00:50:07;10.80;99.90
30371;DHT22;17164;48.590;11.410;2023-06-14T00:52:33;10.70;99.90
30371;DHT22;17164;48.590;11.410;2023-06-14T00:55:00;10.70;99.90
30371;DHT22;17164;48.590;11.410;2023-06-14T00:57:26;10.70;99.90
30371;DHT22;17164;48.590;11.410;2023-06-14T00:59:52;10.70;99.90
30371;DHT22;17164;48.590;11.410;2023-06-14T01:02:18;10.70;99.90
30371;DHT22;17164;48.590;11.410;2023-06-14T01:04:47;10.70;99.90
30371;DHT22;17164;48.590;11.410;2023-06-14T01:12:35;10.70;99.90
30371;DHT22;17164;48.590;11.410;2023-06-14T01:15:02;10.70;99.90
30371;DHT22;17164;48.590;11.410;2023-06-14T01:17:29;10.70;99.90
30371;DHT22;17164;48.590;11.410;2023-06-14T01:19:58;10.70;99.90
30371;DHT22;17164;48.590;11.410;2023-06-14T01:22:28;10.80;99.90
30371;DHT22;17164;48.590;11.410;2023-06-14T01:24:54;10.70;99.90
30371;DHT22;17164;48.590;11.410;2023-06-14T01:27:24;10.70;99.90
30371;DHT22;17164;48.590;11.410;2023-06-14T01:29:54;10.60;99.90
30371;DHT22;17164;48.590;11.410;2023-06-14T01:32:25;10.50;99.90
30371;DHT22;17164;48.590;11.410;2023-06-14T01:34:51;10.50;99.90
30371;DHT22;17164;48.590;11.410;2023-06-14T01:37:18;10.40;99.90
30371;DHT22;17164;48.590;11.410;2023-06-14T01:39:44;10.40;99.90
30371;DHT22;17164;48.590;11.410;2023-06-14T01:42:12;10.40;99.90
30371;DHT22;17164;48.590;11.410;2023-06-14T01:44:39;10.30;99.90
30371;DHT22;17164;48.590;11.410;2023-06-14T01:47:05;10.30;99.90
30371;DHT22;17164;48.590;11.410;2023-06-14T01:49:34;10.30;99.90
30371;DHT22;17164;48.590;11.410;2023-06-14T01:52:00;10.30;99.90
30371;DHT22;17164;48.590;11.410;2023-06-14T01:54:26;10.30;99.90
30371;DHT22;17164;48.590;11.410;2023-06-14T01:56:52;10.30;99.90
30371;DHT22;17164;48.590;11.410;2023-06-14T01:59:18;10.30;99.90
30371;DHT22;17164;48.590;11.410;2023-06-14T02:01:44;10.20;99.90
30371;DHT22;17164;48.590;11.410;2023-06-14T02:04:11;10.20;99.90
30371;DHT22;17164;48.590;11.410;2023-06-14T02:06:37;10.20;99.90
30371;DHT22;17164;48.590;11.410;2023-06-14T02:09:03;10.20;99.90
30371;DHT22;17164;48.590;11.410;2023-06-14T02:11:29;10.10;99.90
30371;DHT22;17164;48.590;11.410;2023-06-14T02:13:55;10.00;99.90
30371;DHT22;17164;48.590;11.410;2023-06-14T02:16:21;10.00;99.90
30371;DHT22;17164;48.590;11.410;2023-06-14T02:18:47;9.90;99.90
30371;DHT22;17164;48.590;11.410;2023-06-14T02:21:14;9.80;99.90
30371;DHT22;17164;48.590;11.410;2023-06-14T02:23:39;9.80;99.90
30371;DHT22;17164;48.590;11.410;2023-06-14T02:26:05;9.80;99.90
30371;DHT22;17164;48.590;11.410;2023-06-14T02:28:31;9.70;99.90
30371;DHT22;17164;48.590;11.410;2023-06-14T02:30:56;9.70;99.90
30371;DHT22;17164;48.590;11.410;2023-06-14T02:33:22;9.70;99.90
30371;DHT22;17164;48.590;11.410;2023-06-14T02:35:48;9.70;99.90
30371;DHT22;17164;48.590;11.410;2023-06-14T02:38:13;9.70;99.90
30371;DHT22;17164;48.590;11.410;2023-06-14T02:40:39;9.60;99.90
30371;DHT22;17164;48.590;11.410;2023-06-14T02:43:07;9.70;99.90
30371;DHT22;17164;48.590;11.410;2023-06-14T02:45:33;9.60;99.90
30371;DHT22;17164;48.590;11.410;2023-06-14T02:47:58;9.60;99.90
30371;DHT22;17164;48.590;11.410;2023-06-14T02:50:24;9.60;99.90
30371;DHT22;17164;48.590;11.410;2023-06-14T02:52:50;9.50;99.90
30371;DHT22;17164;48.590;11.410;2023-06-14T02:55:15;9.50;99.90
30371;DHT22;17164;48.590;11.410;2023-06-14T02:57:41;9.50;99.90
30371;DHT22;17164;48.590;11.410;2023-06-14T03:00:07;9.40;99.90
30371;DHT22;17164;48.590;11.410;2023-06-14T03:02:38;9.40;99.90
30371;DHT22;17164;48.590;11.410;2023-06-14T03:05:04;9.40;99.90
30371;DHT22;17164;48.590;11.410;2023-06-14T03:07:31;9.40;99.90
30371;DHT22;17164;48.590;11.410;2023-06-14T03:09:58;9.40;99.90
30371;DHT22;17164;48.590;11.410;2023-06-14T03:12:23;9.40;99.90
30371;DHT22;17164;48.590;11.410;2023-06-14T03:14:49;9.30;99.90
30371;DHT22;17164;48.590;11.410;2023-06-14T03:17:16;9.30;99.90
30371;DHT22;17164;48.590;11.410;2023-06-14T03:19:43;9.30;99.90
30371;DHT22;17164;48.590;11.410;2023-06-14T03:22:08;9.30;99.90
30371;DHT22;17164;48.590;11.410;2023-06-14T03:24:34;9.20;99.90
30371;DHT22;17164;48.590;11.410;2023-06-14T03:27:02;9.20;99.90
30371;DHT22;17164;48.590;11.410;2023-06-14T03:29:28;9.20;99.90
30371;DHT22;17164;48.590;11.410;2023-06-14T03:32:02;9.20;99.90
30371;DHT22;17164;48.590;11.410;2023-06-14T03:34:28;9.20;99.90
30371;DHT22;17164;48.590;11.410;2023-06-14T03:36:54;9.20;99.90
30371;DHT22;17164;48.590;11.410;2023-06-14T03:39:20;9.20;99.90
30371;DHT22;17164;48.590;11.410;2023-06-14T03:41:46;9.20;99.90
30371;DHT22;17164;48.590;11.410;2023-06-14T03:44:13;9.20;99.90
30371;DHT22;17164;48.590;11.410;2023-06-14T03:46:39;9.10;99.90
30371;DHT22;17164;48.590;11.410;2023-06-14T03:49:05;9.10;99.90
30371;DHT22;17164;48.590;11.410;2023-06-14T03:51:30;9.10;99.90
30371;DHT22;17164;48.590;11.410;2023-06-14T03:53:56;9.20;99.90
30371;DHT22;17164;48.590;11.410;2023-06-14T03:56:21;9.20;99.90
30371;DHT22;17164;48.590;11.410;2023-06-14T03:58:47;9.20;99.90
30371;DHT22;17164;48.590;11.410;2023-06-14T04:01:13;9.30;99.90
30371;DHT22;17164;48.590;11.410;2023-06-14T04:03:39;9.30;99.90
30371;DHT22;17164;48.590;11.410;2023-06-14T04:06:05;9.30;99.90
30371;DHT22;17164;48.590;11.410;2023-06-14T04:08:31;9.40;99.90
30371;DHT22;17164;48.590;11.410;2023-06-14T04:10:57;9.40;99.90
30371;DHT22;17164;48.590;11.410;2023-06-14T04:13:23;9.40;99.90
30371;DHT22;17164;48.590;11.410;2023-06-14T04:15:48;9.50;99.90
30371;DHT22;17164;48.590;11.410;2023-06-14T04:18:14;9.50;99.90
30371;DHT22;17164;48.590;11.410;2023-06-14T04:20:39;9.60;99.90
30371;DHT22;17164;48.590;11.410;2023-06-14T04:23:16;9.60;99.90
30371;DHT22;17164;48.590;11.410;2023-06-14T04:25:43;9.70;99.90
30371;DHT22;17164;48.590;11.410;2023-06-14T04:28:13;9.70;99.90
30371;DHT22;17164;48.590;11.410;2023-06-14T04:30:41;9.80;99.90
30371;DHT22;17164;48.590;11.410;2023-06-14T04:33:07;9.80;99.90
30371;DHT22;17164;48.590;11.410;2023-06-14T04:35:33;9.90;99.90
30371;DHT22;17164;48.590;11.410;2023-06-14T04:38:01;10.00;99.90
30371;DHT22;17164;48.590;11.410;2023-06-14T04:40:30;10.10;99.90
30371;DHT22;17164;48.590;11.410;2023-06-14T04:42:55;10.10;99.90
30371;DHT22;17164;48.590;11.410;2023-06-14T04:45:21;10.20;99.90
30371;DHT22;17164;48.590;11.410;2023-06-14T04:47:47;10.30;99.90
30371;DHT22;17164;48.590;11.410;2023-06-14T04:50:13;10.40;99.90
30371;DHT22;17164;48.590;11.410;2023-06-14T04:52:39;10.50;99.90
30371;DHT22;17164;48.590;11.410;2023-06-14T04:55:04;10.60;99.90
30371;DHT22;17164;48.590;11.410;2023-06-14T04:57:31;10.70;99.90
30371;DHT22;17164;48.590;11.410;2023-06-14T04:59:57;10.80;99.90
30371;DHT22;17164;48.590;11.410;2023-06-14T05:02:23;10.90;99.90
30371;DHT22;17164;48.590;11.410;2023-06-14T05:04:49;11.00;99.90
30371;DHT22;17164;48.590;11.410;2023-06-14T05:07:15;11.10;99.90
30371;DHT22;17164;48.590;11.410;2023-06-14T05:09:41;11.30;99.90
30371;DHT22;17164;48.590;11.410;2023-06-14T05:12:07;11.30;99.90
30371;DHT22;17164;48.590;11.410;2023-06-14T05:14:36;11.40;99.90
30371;DHT22;17164;48.590;11.410;2023-06-14T05:17:02;11.50;99.90
30371;DHT22;17164;48.590;11.410;2023-06-14T05:19:31;11.60;99.90
30371;DHT22;17164;48.590;11.410;2023-06-14T05:21:56;11.70;99.90
30371;DHT22;17164;48.590;11.410;2023-06-14T05:24:22;11.80;99.90
30371;DHT22;17164;48.590;11.410;2023-06-14T05:26:48;12.00;99.90
30371;DHT22;17164;48.590;11.410;2023-06-14T05:29:14;12.10;99.90
30371;DHT22;17164;48.590;11.410;2023-06-14T05:31:40;12.20;99.90
30371;DHT22;17164;48.590;11.410;2023-06-14T05:34:05;12.30;99.90
30371;DHT22;17164;48.590;11.410;2023-06-14T05:36:31;12.40;99.90
30371;DHT22;17164;48.590;11.410;2023-06-14T05:38:57;12.50;99.90
30371;DHT22;17164;48.590;11.410;2023-06-14T05:41:26;12.60;99.90
30371;DHT22;17164;48.590;11.410;2023-06-14T05:43:53;12.70;99.90
30371;DHT22;17164;48.590;11.410;2023-06-14T05:46:20;12.90;99.90
30371;DHT22;17164;48.590;11.410;2023-06-14T05:48:48;13.00;99.90
30371;DHT22;17164;48.590;11.410;2023-06-14T05:51:14;13.20;99.90
30371;DHT22;17164;48.590;11.410;2023-06-14T05:53:40;13.30;99.90
30371;DHT22;17164;48.590;11.410;2023-06-14T05:56:05;13.50;99.90
30371;DHT22;17164;48.590;11.410;2023-06-14T05:58:31;13.60;99.90
30371;DHT22;17164;48.590;11.410;2023-06-14T06:00:57;13.80;99.90
30371;DHT22;17164;48.590;11.410;2023-06-14T06:03:23;13.90;99.90
30371;DHT22;17164;48.590;11.410;2023-06-14T06:05:49;14.00;99.90
30371;DHT22;17164;48.590;11.410;2023-06-14T06:08:14;14.20;99.90
30371;DHT22;17164;48.590;11.410;2023-06-14T06:10:42;14.30;99.90
30371;DHT22;17164;48.590;11.410;2023-06-14T06:13:07;14.40;99.90
30371;DHT22;17164;48.590;11.410;2023-06-14T06:15:33;14.50;99.90
30371;DHT22;17164;48.590;11.410;2023-06-14T06:17:58;14.70;99.90
30371;DHT22;17164;48.590;11.410;2023-06-14T06:20:24;14.80;99.90
30371;DHT22;17164;48.590;11.410;2023-06-14T06:22:53;14.90;99.90
30371;DHT22;17164;48.590;11.410;2023-06-14T06:25:19;15.10;99.90
30371;DHT22;17164;48.590;11.410;2023-06-14T06:27:44;15.20;99.90
30371;DHT22;17164;48.590;11.410;2023-06-14T06:30:11;15.30;99.90
30371;DHT22;17164;48.590;11.410;2023-06-14T06:32:36;15.40;99.90
30371;DHT22;17164;48.590;11.410;2023-06-14T06:35:02;15.50;99.90
30371;DHT22;17164;48.590;11.410;2023-06-14T06:37:28;15.60;99.90
30371;DHT22;17164;48.590;11.410;2023-06-14T06:39:54;15.70;99.90
30371;DHT22;17164;48.590;11.410;2023-06-14T06:42:19;15.90;99.90
30371;DHT22;17164;48.590;11.410;2023-06-14T06:44:45;16.00;99.90
30371;DHT22;17164;48.590;11.410;2023-06-14T06:47:11;16.20;99.90
30371;DHT22;17164;48.590;11.410;2023-06-14T06:49:36;16.30;99.40
30371;DHT22;17164;48.590;11.410;2023-06-14T06:52:05;16.50;99.50
30371;DHT22;17164;48.590;11.410;2023-06-14T06:54:32;16.60;98.50
30371;DHT22;17164;48.590;11.410;2023-06-14T06:56:58;16.70;98.30
30371;DHT22;17164;48.590;11.410;2023-06-14T06:59:24;16.90;98.20
30371;DHT22;17164;48.590;11.410;2023-06-14T07:01:50;17.10;98.30
30371;DHT22;17164;48.590;11.410;2023-06-14T07:04:15;17.10;97.10
30371;DHT22;17164;48.590;11.410;2023-06-14T07:06:42;17.30;96.50
30371;DHT22;17164;48.590;11.410;2023-06-14T07:09:07;17.40;96.20
30371;DHT22;17164;48.590;11.410;2023-06-14T07:11:40;17.50;95.60
30371;DHT22;17164;48.590;11.410;2023-06-14T07:14:06;17.60;96.00
30371;DHT22;17164;48.590;11.410;2023-06-14T07:16:32;17.70;96.40
30371;DHT22;17164;48.590;11.410;2023-06-14T07:18:57;17.90;96.10
30371;DHT22;17164;48.590;11.410;2023-06-14T07:21:23;18.00;95.50
30371;DHT22;17164;48.590;11.410;2023-06-14T07:23:51;18.10;94.80
30371;DHT22;17164;48.590;11.410;2023-06-14T07:26:16;18.20;94.40
30371;DHT22;17164;48.590;11.410;2023-06-14T07:28:42;18.30;93.70
30371;DHT22;17164;48.590;11.410;2023-06-14T07:31:10;18.40;93.60
30371;DHT22;17164;48.590;11.410;2023-06-14T07:33:36;18.60;93.10
30371;DHT22;17164;48.590;11.410;2023-06-14T07:36:02;18.70;93.50
30371;DHT22;17164;48.590;11.410;2023-06-14T07:38:28;18.80;91.20
30371;DHT22;17164;48.590;11.410;2023-06-14T07:40:54;18.90;92.00
30371;DHT22;17164;48.590;11.410;2023-06-14T07:43:19;19.00;92.60
30371;DHT22;17164;48.590;11.410;2023-06-14T07:45:45;19.00;92.10
30371;DHT22;17164;48.590;11.410;2023-06-14T07:48:11;19.10;92.20
30371;DHT22;17164;48.590;11.410;2023-06-14T07:50:37;19.20;91.30
30371;DHT22;17164;48.590;11.410;2023-06-14T07:53:02;19.30;90.70
30371;DHT22;17164;48.590;11.410;2023-06-14T07:55:28;19.50;90.50
30371;DHT22;17164;48.590;11.410;2023-06-14T07:57:54;19.60;89.90
30371;DHT22;17164;48.590;11.410;2023-06-14T08:00:20;19.70;88.20
30371;DHT22;17164;48.590;11.410;2023-06-14T08:02:46;19.80;87.50
30371;DHT22;17164;48.590;11.410;2023-06-14T08:05:12;19.90;85.60
30371;DHT22;17164;48.590;11.410;2023-06-14T08:07:39;19.90;86.60
30371;DHT22;17164;48.590;11.410;2023-06-14T08:10:05;19.80;85.00
30371;DHT22;17164;48.590;11.410;2023-06-14T08:12:32;19.80;84.70
30371;DHT22;17164;48.590;11.410;2023-06-14T08:14:57;19.70;85.40
30371;DHT22;17164;48.590;11.410;2023-06-14T08:17:23;19.60;86.60
30371;DHT22;17164;48.590;11.410;2023-06-14T08:19:49;19.60;85.90
30371;DHT22;17164;48.590;11.410;2023-06-14T08:22:15;19.60;85.80
30371;DHT22;17164;48.590;11.410;2023-06-14T08:24:40;19.60;87.60
30371;DHT22;17164;48.590;11.410;2023-06-14T08:27:06;19.70;86.40
30371;DHT22;17164;48.590;11.410;2023-06-14T08:29:32;19.80;85.70
30371;DHT22;17164;48.590;11.410;2023-06-14T08:31:58;19.80;84.70
30371;DHT22;17164;48.590;11.410;2023-06-14T08:34:24;19.80;84.70
30371;DHT22;17164;48.590;11.410;2023-06-14T08:36:52;19.90;85.70
30371;DHT22;17164;48.590;11.410;2023-06-14T08:39:18;20.10;84.80
30371;DHT22;17164;48.590;11.410;2023-06-14T08:41:47;20.20;83.90
30371;DHT22;17164;48.590;11.410;2023-06-14T08:44:16;20.30;84.60
30371;DHT22;17164;48.590;11.410;2023-06-14T08:46:42;20.50;82.90
30371;DHT22;17164;48.590;11.410;2023-06-14T08:49:09;20.60;80.00
30371;DHT22;17164;48.590;11.410;2023-06-14T08:51:36;20.70;80.60
30371;DHT22;17164;48.590;11.410;2023-06-14T08:54:03;20.70;79.90
30371;DHT22;17164;48.590;11.410;2023-06-14T08:56:30;20.70;79.90
30371;DHT22;17164;48.590;11.410;2023-06-14T08:58:57;20.70;78.20
30371;DHT22;17164;48.590;11.410;2023-06-14T09:01:26;20.80;78.40
30371;DHT22;17164;48.590;11.410;2023-06-14T09:03:52;20.80;77.70
30371;DHT22;17164;48.590;11.410;2023-06-14T09:06:21;20.90;76.30
30371;DHT22;17164;48.590;11.410;2023-06-14T09:08:48;20.90;75.80
30371;DHT22;17164;48.590;11.410;2023-06-14T09:11:15;20.80;76.40
30371;DHT22;17164;48.590;11.410;2023-06-14T09:13:44;20.80;74.90
30371;DHT22;17164;48.590;11.410;2023-06-14T09:16:09;20.90;74.50
30371;DHT22;17164;48.590;11.410;2023-06-14T09:18:40;21.10;73.80
30371;DHT22;17164;48.590;11.410;2023-06-14T09:21:07;21.30;74.50
30371;DHT22;17164;48.590;11.410;2023-06-14T09:23:38;21.70;71.90
30371;DHT22;17164;48.590;11.410;2023-06-14T09:28:33;22.20;66.10
30371;DHT22;17164;48.590;11.410;2023-06-14T09:31:00;22.30;65.80
30371;DHT22;17164;48.590;11.410;2023-06-14T09:33:26;22.40;62.80
30371;DHT22;17164;48.590;11.410;2023-06-14T09:35:54;22.50;63.00
30371;DHT22;17164;48.590;11.410;2023-06-14T09:38:20;22.60;62.00
30371;DHT22;17164;48.590;11.410;2023-06-14T09:40:46;22.80;63.10
30371;DHT22;17164;48.590;11.410;2023-06-14T09:43:11;22.90;60.80
30371;DHT22;17164;48.590;11.410;2023-06-14T09:45:38;23.00;60.70
30371;DHT22;17164;48.590;11.410;2023-06-14T09:48:11;23.10;63.40
30371;DHT22;17164;48.590;11.410;2023-06-14T09:50:37;23.20;63.20
30371;DHT22;17164;48.590;11.410;2023-06-14T09:53:10;23.20;63.50
30371;DHT22;17164;48.590;11.410;2023-06-14T09:55:36;23.40;64.70
30371;DHT22;17164;48.590;11.410;2023-06-14T09:58:07;23.40;63.30
30371;DHT22;17164;48.590;11.410;2023-06-14T10:00:34;23.50;61.00
30371;DHT22;17164;48.590;11.410;2023-06-14T10:05:37;23.60;59.40
30371;DHT22;17164;48.590;11.410;2023-06-14T10:08:11;23.60;57.50
30371;DHT22;17164;48.590;11.410;2023-06-14T10:10:39;23.40;59.10
30371;DHT22;17164;48.590;11.410;2023-06-14T10:13:06;23.20;59.00
30371;DHT22;17164;48.590;11.410;2023-06-14T10:18:46;23.30;60.40
30371;DHT22;17164;48.590;11.410;2023-06-14T10:21:41;23.50;57.50
30371;DHT22;17164;48.590;11.410;2023-06-14T10:24:12;23.80;58.00
30371;DHT22;17164;48.590;11.410;2023-06-14T10:26:57;24.00;55.00
30371;DHT22;17164;48.590;11.410;2023-06-14T10:29:23;24.30;56.70
30371;DHT22;17164;48.590;11.410;2023-06-14T10:31:50;24.40;54.80
30371;DHT22;17164;48.590;11.410;2023-06-14T10:34:30;24.60;55.40
30371;DHT22;17164;48.590;11.410;2023-06-14T10:39:31;24.70;54.30
30371;DHT22;17164;48.590;11.410;2023-06-14T10:41:57;24.60;54.90
30371;DHT22;17164;48.590;11.410;2023-06-14T10:47:00;24.30;54.60
30371;DHT22;17164;48.590;11.410;2023-06-14T10:49:42;24.10;53.90
30371;DHT22;17164;48.590;11.410;2023-06-14T10:52:09;23.90;53.60
30371;DHT22;17164;48.590;11.410;2023-06-14T10:55:07;23.80;54.70
30371;DHT22;17164;48.590;11.410;2023-06-14T10:57:41;23.60;55.50
30371;DHT22;17164;48.590;11.410;2023-06-14T11:00:08;23.50;52.60
30371;DHT22;17164;48.590;11.410;2023-06-14T11:05:27;23.20;52.10
30371;DHT22;17164;48.590;11.410;2023-06-14T11:10:38;22.90;54.00
30371;DHT22;17164;48.590;11.410;2023-06-14T11:13:05;22.80;55.80
30371;DHT22;17164;48.590;11.410;2023-06-14T11:15:34;22.70;56.00
30371;DHT22;17164;48.590;11.410;2023-06-14T11:18:02;22.60;56.70
30371;DHT22;17164;48.590;11.410;2023-06-14T11:20:30;22.50;57.00
30371;DHT22;17164;48.590;11.410;2023-06-14T11:22:56;22.50;57.40
30371;DHT22;17164;48.590;11.410;2023-06-14T11:25:22;22.40;57.00
30371;DHT22;17164;48.590;11.410;2023-06-14T11:27:51;22.30;56.40
30371;DHT22;17164;48.590;11.410;2023-06-14T11:30:17;22.30;56.40
30371;DHT22;17164;48.590;11.410;2023-06-14T11:32:50;22.20;56.80
30371;DHT22;17164;48.590;11.410;2023-06-14T11:35:17;22.20;55.70
30371;DHT22;17164;48.590;11.410;2023-06-14T11:37:43;22.30;55.80
30371;DHT22;17164;48.590;11.410;2023-06-14T11:40:14;22.50;56.90
30371;DHT22;17164;48.590;11.410;2023-06-14T11:42:41;22.90;58.20
30371;DHT22;17164;48.590;11.410;2023-06-14T11:45:08;23.30;54.30
30371;DHT22;17164;48.590;11.410;2023-06-14T11:47:35;23.70;56.50
30371;DHT22;17164;48.590;11.410;2023-06-14T11:50:01;24.10;55.80
30371;DHT22;17164;48.590;11.410;2023-06-14T11:52:27;24.20;54.00
30371;DHT22;17164;48.590;11.410;2023-06-14T11:54:53;24.20;54.60
30371;DHT22;17164;48.590;11.410;2023-06-14T11:57:19;24.10;55.50
30371;DHT22;17164;48.590;11.410;2023-06-14T11:59:46;23.90;55.10
30371;DHT22;17164;48.590;11.410;2023-06-14T12:02:19;23.70;53.60
30371;DHT22;17164;48.590;11.410;2023-06-14T12:04:47;23.50;56.40
30371;DHT22;17164;48.590;11.410;2023-06-14T12:07:15;23.20;56.50
30371;DHT22;17164;48.590;11.410;2023-06-14T12:10:03;23.00;54.10
30371;DHT22;17164;48.590;11.410;2023-06-14T12:12:38;22.80;54.90
30371;DHT22;17164;48.590;11.410;2023-06-14T12:15:05;22.60;55.80
30371;DHT22;17164;48.590;11.410;2023-06-14T12:17:35;22.50;56.60
30371;DHT22;17164;48.590;11.410;2023-06-14T12:20:12;22.40;55.90
30371;DHT22;17164;48.590;11.410;2023-06-14T12:22:54;22.30;55.50
30371;DHT22;17164;48.590;11.410;2023-06-14T12:25:27;22.30;54.70
30371;DHT22;17164;48.590;11.410;2023-06-14T12:27:54;22.30;54.10
30371;DHT22;17164;48.590;11.410;2023-06-14T12:30:20;22.30;54.70
30371;DHT22;17164;48.590;11.410;2023-06-14T12:32:45;22.30;55.60
30371;DHT22;17164;48.590;11.410;2023-06-14T12:35:11;22.30;56.50
30371;DHT22;17164;48.590;11.410;2023-06-14T12:37:37;22.30;57.20
30371;DHT22;17164;48.590;11.410;2023-06-14T12:40:04;22.30;57.70
30371;DHT22;17164;48.590;11.410;2023-06-14T12:42:31;22.40;57.90
30371;DHT22;17164;48.590;11.410;2023-06-14T12:44:57;22.40;57.50
30371;DHT22;17164;48.590;11.410;2023-06-14T12:47:22;22.40;57.80
30371;DHT22;17164;48.590;11.410;2023-06-14T12:49:48;22.40;56.00
30371;DHT22;17164;48.590;11.410;2023-06-14T12:52:13;22.40;57.70
30371;DHT22;17164;48.590;11.410;2023-06-14T12:54:39;22.50;54.50
30371;DHT22;17164;48.590;11.410;2023-06-14T12:57:05;22.60;56.80
30371;DHT22;17164;48.590;11.410;2023-06-14T12:59:31;22.90;56.20
30371;DHT22;17164;48.590;11.410;2023-06-14T13:02:14;23.20;56.50
30371;DHT22;17164;48.590;11.410;2023-06-14T13:04:40;23.50;53.80
30371;DHT22;17164;48.590;11.410;2023-06-14T13:07:06;24.00;55.10
30371;DHT22;17164;48.590;11.410;2023-06-14T13:09:31;24.30;54.10
30371;DHT22;17164;48.590;11.410;2023-06-14T13:11:57;24.70;53.50
30371;DHT22;17164;48.590;11.410;2023-06-14T13:14:23;25.10;54.10
30371;DHT22;17164;48.590;11.410;2023-06-14T13:16:48;25.40;53.90
30371;DHT22;17164;48.590;11.410;2023-06-14T13:19:14;25.60;53.20
30371;DHT22;17164;48.590;11.410;2023-06-14T13:21:39;25.90;51.00
30371;DHT22;17164;48.590;11.410;2023-06-14T13:24:05;26.10;51.70
30371;DHT22;17164;48.590;11.410;2023-06-14T13:26:33;26.30;51.10
30371;DHT22;17164;48.590;11.410;2023-06-14T13:28:58;26.30;50.40
30371;DHT22;17164;48.590;11.410;2023-06-14T13:31:24;26.40;49.60
30371;DHT22;17164;48.590;11.410;2023-06-14T13:33:49;26.50;49.40
30371;DHT22;17164;48.590;11.410;2023-06-14T13:36:15;26.50;49.50
30371;DHT22;17164;48.590;11.410;2023-06-14T13:38:41;26.50;48.80
30371;DHT22;17164;48.590;11.410;2023-06-14T13:41:07;26.50;50.80
30371;DHT22;17164;48.590;11.410;2023-06-14T13:43:32;26.60;49.20
30371;DHT22;17164;48.590;11.410;2023-06-14T13:45:58;26.60;50.10
30371;DHT22;17164;48.590;11.410;2023-06-14T13:48:24;26.60;50.30
30371;DHT22;17164;48.590;11.410;2023-06-14T13:50:50;26.50;48.80
30371;DHT22;17164;48.590;11.410;2023-06-14T13:53:15;26.50;47.80
30371;DHT22;17164;48.590;11.410;2023-06-14T13:55:41;26.50;47.90
30371;DHT22;17164;48.590;11.410;2023-06-14T13:58:06;26.50;48.50
30371;DHT22;17164;48.590;11.410;2023-06-14T14:00:32;26.50;49.40
30371;DHT22;17164;48.590;11.410;2023-06-14T14:02:58;26.50;48.00
30371;DHT22;17164;48.590;11.410;2023-06-14T14:05:25;26.60;47.40
30371;DHT22;17164;48.590;11.410;2023-06-14T14:07:55;26.50;47.00
30371;DHT22;17164;48.590;11.410;2023-06-14T14:10:20;26.50;44.20
30371;DHT22;17164;48.590;11.410;2023-06-14T14:12:46;26.40;44.10
30371;DHT22;17164;48.590;11.410;2023-06-14T14:15:12;26.30;45.40
30371;DHT22;17164;48.590;11.410;2023-06-14T14:17:40;26.20;45.30
30371;DHT22;17164;48.590;11.410;2023-06-14T14:20:06;26.00;45.00
30371;DHT22;17164;48.590;11.410;2023-06-14T14:22:32;26.00;44.30
30371;DHT22;17164;48.590;11.410;2023-06-14T14:24:58;25.90;45.40
30371;DHT22;17164;48.590;11.410;2023-06-14T14:27:23;25.90;45.30
30371;DHT22;17164;48.590;11.410;2023-06-14T14:29:49;25.90;46.40
30371;DHT22;17164;48.590;11.410;2023-06-14T14:32:14;25.90;45.60
30371;DHT22;17164;48.590;11.410;2023-06-14T14:34:41;26.00;45.50
30371;DHT22;17164;48.590;11.410;2023-06-14T14:37:06;25.90;47.60
30371;DHT22;17164;48.590;11.410;2023-06-14T14:39:32;25.90;47.30
30371;DHT22;17164;48.590;11.410;2023-06-14T14:41:58;25.80;48.00
30371;DHT22;17164;48.590;11.410;2023-06-14T14:44:23;25.80;49.30
30371;DHT22;17164;48.590;11.410;2023-06-14T14:46:49;25.80;45.40
30371;DHT22;17164;48.590;11.410;2023-06-14T14:49:15;25.70;47.30
30371;DHT22;17164;48.590;11.410;2023-06-14T14:51:40;25.70;48.60
30371;DHT22;17164;48.590;11.410;2023-06-14T14:54:06;25.80;48.00
30371;DHT22;17164;48.590;11.410;2023-06-14T14:56:32;25.90;47.60
30371;DHT22;17164;48.590;11.410;2023-06-14T14:58:57;26.00;47.60
30371;DHT22;17164;48.590;11.410;2023-06-14T15:01:23;25.90;48.60
30371;DHT22;17164;48.590;11.410;2023-06-14T15:03:49;25.80;48.00
30371;DHT22;17164;48.590;11.410;2023-06-14T15:06:14;25.60;48.60
30371;DHT22;17164;48.590;11.410;2023-06-14T15:08:40;25.30;48.50
30371;DHT22;17164;48.590;11.410;2023-06-14T15:11:05;25.10;48.30
30371;DHT22;17164;48.590;11.410;2023-06-14T15:13:32;24.90;48.40
30371;DHT22;17164;48.590;11.410;2023-06-14T15:15:57;24.70;48.70
30371;DHT22;17164;48.590;11.410;2023-06-14T15:18:23;24.60;49.10
30371;DHT22;17164;48.590;11.410;2023-06-14T15:20:49;24.60;49.40
30371;DHT22;17164;48.590;11.410;2023-06-14T15:23:15;24.70;48.80
30371;DHT22;17164;48.590;11.410;2023-06-14T15:25:45;24.90;48.90
30371;DHT22;17164;48.590;11.410;2023-06-14T15:28:11;25.10;49.90
30371;DHT22;17164;48.590;11.410;2023-06-14T15:30:37;25.30;49.10
30371;DHT22;17164;48.590;11.410;2023-06-14T15:33:02;25.60;48.10
30371;DHT22;17164;48.590;11.410;2023-06-14T15:35:28;25.80;47.40
30371;DHT22;17164;48.590;11.410;2023-06-14T15:37:53;25.80;47.10
30371;DHT22;17164;48.590;11.410;2023-06-14T15:40:19;25.60;48.10